createdAt,value
2022-12-11T00:01:09.338Z,-1.60
2022-12-11T00:02:11.016Z,-1.50
2022-12-11T00:03:15.799Z,-1.60
2022-12-11T00:04:17.685Z,-1.60
2022-12-11T00:05:19.361Z,-1.60
2022-12-11T00:06:23.344Z,-1.60
2022-12-11T00:07:25.164Z,-1.60
2022-12-11T00:08:26.846Z,-1.60
2022-12-11T00:09:29.063Z,-1.60
2022-12-11T00:10:34.658Z,-1.60
2022-12-11T00:11:39.368Z,-1.60
2022-12-11T00:12:41.132Z,-1.60
2022-12-11T00:13:42.969Z,-1.60
2022-12-11T00:14:44.739Z,-1.60
2022-12-11T00:15:46.428Z,-1.60
2022-12-11T00:16:49.595Z,-1.60
2022-12-11T00:17:51.341Z,-1.60
2022-12-11T00:18:53.062Z,-1.60
2022-12-11T00:19:54.885Z,-1.60
2022-12-11T00:21:01.563Z,-1.60
2022-12-11T00:22:03.561Z,-1.60
2022-12-11T00:23:05.518Z,-1.60
2022-12-11T00:24:07.427Z,-1.60
2022-12-11T00:25:09.766Z,-1.60
2022-12-11T00:26:15.957Z,-1.60
2022-12-11T00:27:17.728Z,-1.60
2022-12-11T00:28:19.509Z,-1.60
2022-12-11T00:29:21.207Z,-1.60
2022-12-11T00:30:23.080Z,-1.60
2022-12-11T00:31:25.216Z,-1.60
2022-12-11T00:32:28.562Z,-1.60
2022-12-11T00:33:30.608Z,-1.60
2022-12-11T00:34:32.360Z,-1.60
2022-12-11T00:35:34.103Z,-1.60
2022-12-11T00:36:35.898Z,-1.60
2022-12-11T00:37:37.696Z,-1.60
2022-12-11T00:38:39.614Z,-1.60
2022-12-11T00:39:41.341Z,-1.60
2022-12-11T00:40:43.746Z,-1.60
2022-12-11T00:41:45.477Z,-1.60
2022-12-11T00:42:47.120Z,-1.60
2022-12-11T00:43:48.829Z,-1.60
2022-12-11T00:44:51.268Z,-1.60
2022-12-11T00:45:53.033Z,-1.50
2022-12-11T00:46:54.813Z,-1.50
2022-12-11T00:47:56.512Z,-1.50
2022-12-11T00:48:58.894Z,-1.50
2022-12-11T00:50:00.598Z,-1.50
2022-12-11T00:51:02.296Z,-1.50
2022-12-11T00:52:04.024Z,-1.50
2022-12-11T00:53:06.720Z,-1.50
2022-12-11T00:54:08.435Z,-1.50
2022-12-11T00:55:10.830Z,-1.50
2022-12-11T00:56:15.543Z,-1.50
2022-12-11T00:57:17.320Z,-1.40
2022-12-11T00:58:19.345Z,-1.40
2022-12-11T00:59:21.041Z,-1.40
2022-12-11T01:00:23.317Z,-1.40
2022-12-11T01:01:25.925Z,-1.40
2022-12-11T01:02:27.813Z,-1.40
2022-12-11T01:03:29.585Z,-1.40
2022-12-11T01:04:31.254Z,-1.40
2022-12-11T01:05:33.797Z,-1.40
2022-12-11T01:06:35.507Z,-1.40
2022-12-11T01:07:37.255Z,-1.40
2022-12-11T01:08:39.057Z,-1.40
2022-12-11T01:09:59.557Z,-1.40
2022-12-11T01:11:03.591Z,-1.40
2022-12-11T01:12:05.507Z,-1.40
2022-12-11T01:13:07.395Z,-1.40
2022-12-11T01:14:10.985Z,-1.40
2022-12-11T01:15:13.042Z,-1.40
2022-12-11T01:16:16.172Z,-1.40
2022-12-11T01:17:17.912Z,-1.30
2022-12-11T01:18:19.717Z,-1.40
2022-12-11T01:19:21.436Z,-1.40
2022-12-11T01:20:24.402Z,-1.40
2022-12-11T01:21:26.814Z,-1.40
2022-12-11T01:22:28.489Z,-1.40
2022-12-11T01:23:30.214Z,-1.30
2022-12-11T01:24:32.221Z,-1.30
2022-12-11T01:25:38.155Z,-1.30
2022-12-11T01:26:39.907Z,-1.30
2022-12-11T01:27:41.586Z,-1.30
2022-12-11T01:28:44.511Z,-1.40
2022-12-11T01:29:46.238Z,-1.30
2022-12-11T01:30:47.998Z,-1.30
2022-12-11T01:31:49.777Z,-1.30
2022-12-11T01:32:51.534Z,-1.30
2022-12-11T01:33:56.737Z,-1.30
2022-12-11T01:34:58.429Z,-1.30
2022-12-11T01:36:00.184Z,-1.30
2022-12-11T01:37:01.822Z,-1.30
2022-12-11T01:38:03.531Z,-1.30
2022-12-11T01:39:05.370Z,-1.30
2022-12-11T01:40:08.717Z,-1.20
2022-12-11T01:41:10.850Z,-1.30
2022-12-11T01:42:18.518Z,-1.30
2022-12-11T01:43:20.254Z,-1.20
2022-12-11T01:44:21.922Z,-1.20
2022-12-11T01:45:50.182Z,-1.20
2022-12-11T01:46:51.922Z,-1.20
2022-12-11T01:48:12.684Z,-1.20
2022-12-11T01:49:17.441Z,-1.20
2022-12-11T01:50:20.037Z,-1.20
2022-12-11T01:51:23.029Z,-1.20
2022-12-11T01:52:25.154Z,-1.20
2022-12-11T01:53:34.304Z,-1.20
2022-12-11T01:54:36.312Z,-1.10
2022-12-11T01:55:39.826Z,-1.10
2022-12-11T01:56:43.829Z,-1.10
2022-12-11T01:57:49.107Z,-1.10
2022-12-11T01:58:55.703Z,-1.10
2022-12-11T01:59:57.576Z,-1.10
2022-12-11T02:01:00.197Z,-1.10
2022-12-11T02:02:10.047Z,-1.10
2022-12-11T02:03:11.806Z,-1.00
2022-12-11T02:04:15.264Z,-1.00
2022-12-11T02:05:17.223Z,-1.00
2022-12-11T02:06:38.074Z,-1.00
2022-12-11T02:07:58.374Z,-0.90
2022-12-11T02:09:00.772Z,-0.90
2022-12-11T02:10:02.903Z,-0.90
2022-12-11T02:11:20.875Z,-0.90
2022-12-11T02:12:34.846Z,-0.90
2022-12-11T02:13:46.784Z,-0.90
2022-12-11T02:14:51.113Z,-1.00
2022-12-11T02:16:09.701Z,-1.00
2022-12-11T02:17:21.693Z,-1.00
2022-12-11T02:19:02.762Z,-1.00
2022-12-11T02:20:17.488Z,-1.00
2022-12-11T02:21:35.228Z,-1.00
2022-12-11T02:23:11.911Z,-0.90
2022-12-11T02:24:25.281Z,-0.90
2022-12-11T02:25:53.108Z,-0.90
2022-12-11T02:27:28.910Z,-1.00
2022-12-11T02:28:33.343Z,-1.00
2022-12-11T02:30:05.374Z,-0.90
2022-12-11T02:31:16.228Z,-0.90
2022-12-11T02:32:25.796Z,-0.90
2022-12-11T02:33:37.153Z,-1.00
2022-12-11T02:34:49.365Z,-0.90
2022-12-11T02:35:51.197Z,-0.90
2022-12-11T02:36:58.179Z,-1.10
2022-12-11T02:38:05.910Z,-0.90
2022-12-11T02:39:12.277Z,-0.90
2022-12-11T02:40:19.233Z,-0.90
2022-12-11T02:41:22.788Z,-0.90
2022-12-11T02:42:31.280Z,-0.90
2022-12-11T02:43:35.321Z,-0.90
2022-12-11T02:44:38.247Z,-0.90
2022-12-11T02:45:43.421Z,-0.90
2022-12-11T02:46:45.679Z,-0.90
2022-12-11T02:47:49.411Z,-0.90
2022-12-11T02:48:52.862Z,-0.90
2022-12-11T02:49:56.757Z,-0.90
2022-12-11T02:51:00.737Z,-0.90
2022-12-11T02:52:05.074Z,-0.90
2022-12-11T02:53:07.933Z,-0.90
2022-12-11T02:54:16.571Z,-0.90
2022-12-11T02:55:19.761Z,-0.90
2022-12-11T02:56:34.053Z,-0.90
2022-12-11T02:57:50.084Z,-0.90
2022-12-11T02:58:59.714Z,-0.90
2022-12-11T03:00:02.014Z,-0.90
2022-12-11T03:01:04.342Z,-0.90
2022-12-11T03:02:06.767Z,-0.90
2022-12-11T03:03:08.537Z,-0.90
2022-12-11T03:04:10.251Z,-0.90
2022-12-11T03:05:13.644Z,-0.90
2022-12-11T03:06:20.144Z,-0.90
2022-12-11T03:07:25.941Z,-0.90
2022-12-11T03:08:27.756Z,-0.90
2022-12-11T03:09:29.471Z,-0.90
2022-12-11T03:10:31.216Z,-0.80
2022-12-11T03:11:32.872Z,-0.80
2022-12-11T03:12:38.352Z,-0.80
2022-12-11T03:13:42.526Z,-0.80
2022-12-11T03:14:44.786Z,-0.80
2022-12-11T03:16:20.559Z,-0.80
2022-12-11T03:17:42.552Z,-0.80
2022-12-11T03:19:04.440Z,-0.80
2022-12-11T03:20:09.848Z,-0.80
2022-12-11T03:21:49.010Z,-0.80
2022-12-11T03:22:54.423Z,-0.80
2022-12-11T03:24:17.467Z,-0.90
2022-12-11T03:25:25.164Z,-0.90
2022-12-11T03:26:28.162Z,-0.90
2022-12-11T03:27:38.618Z,-0.90
2022-12-11T03:28:55.778Z,-0.90
2022-12-11T03:30:04.663Z,-0.90
2022-12-11T03:31:12.875Z,-0.90
2022-12-11T03:32:20.004Z,-0.90
2022-12-11T03:33:33.421Z,-0.90
2022-12-11T03:34:58.554Z,-0.90
2022-12-11T03:36:12.709Z,-0.90
2022-12-11T03:37:15.494Z,-0.80
2022-12-11T03:38:28.095Z,-0.80
2022-12-11T03:39:33.635Z,-0.80
2022-12-11T03:40:36.076Z,-0.80
2022-12-11T03:41:39.785Z,-0.80
2022-12-11T03:42:44.410Z,-0.80
2022-12-11T03:43:46.688Z,-0.80
2022-12-11T03:44:51.354Z,-0.80
2022-12-11T03:45:54.466Z,-0.80
2022-12-11T03:46:58.547Z,-0.80
2022-12-11T03:48:02.876Z,-0.80
2022-12-11T03:49:27.754Z,-0.80
2022-12-11T03:50:32.146Z,-0.80
2022-12-11T03:51:35.664Z,-0.80
2022-12-11T03:52:45.335Z,-0.80
2022-12-11T03:53:48.180Z,-0.80
2022-12-11T03:54:50.960Z,-0.80
2022-12-11T03:55:54.120Z,-0.80
2022-12-11T03:56:57.936Z,-0.80
2022-12-11T03:57:59.672Z,-0.80
2022-12-11T03:59:01.551Z,-0.80
2022-12-11T04:00:09.376Z,-0.80
2022-12-11T04:01:11.985Z,-0.80
2022-12-11T04:02:13.619Z,-0.80
2022-12-11T04:03:16.382Z,-0.80
2022-12-11T04:04:18.275Z,-0.80
2022-12-11T04:05:19.970Z,-0.80
2022-12-11T04:06:21.743Z,-0.80
2022-12-11T04:07:23.386Z,-0.80
2022-12-11T04:08:25.431Z,-0.80
2022-12-11T04:09:27.251Z,-0.80
2022-12-11T04:10:29.068Z,-0.90
2022-12-11T04:11:36.857Z,-0.90
2022-12-11T04:12:38.654Z,-0.90
2022-12-11T04:13:41.463Z,-0.90
2022-12-11T04:15:01.739Z,-0.90
2022-12-11T04:16:03.497Z,-0.90
2022-12-11T04:17:05.720Z,-0.90
2022-12-11T04:18:27.052Z,-0.90
2022-12-11T04:19:47.644Z,-1.00
2022-12-11T04:21:08.170Z,-1.00
2022-12-11T04:22:33.177Z,-0.90
2022-12-11T04:23:53.613Z,-1.00
2022-12-11T04:24:55.361Z,-1.00
2022-12-11T04:26:12.537Z,-0.90
2022-12-11T04:27:14.246Z,-1.00
2022-12-11T04:28:16.305Z,-1.00
2022-12-11T04:29:18.028Z,-1.00
2022-12-11T04:30:28.016Z,-1.00
2022-12-11T04:31:32.647Z,-1.00
2022-12-11T04:32:34.463Z,-1.00
2022-12-11T04:33:36.132Z,-1.00
2022-12-11T04:34:37.865Z,-1.00
2022-12-11T04:35:39.604Z,-1.00
2022-12-11T04:36:41.345Z,-1.00
2022-12-11T04:37:43.072Z,-1.00
2022-12-11T04:38:44.780Z,-1.00
2022-12-11T04:39:46.450Z,-1.10
2022-12-11T04:40:48.187Z,-1.10
2022-12-11T04:41:49.897Z,-1.00
2022-12-11T04:42:51.590Z,-1.10
2022-12-11T04:43:53.355Z,-1.10
2022-12-11T04:44:55.074Z,-1.10
2022-12-11T04:46:06.555Z,-1.10
2022-12-11T04:47:08.267Z,-1.10
2022-12-11T04:48:09.988Z,-1.10
2022-12-11T04:49:12.584Z,-1.10
2022-12-11T04:50:15.658Z,-1.10
2022-12-11T04:51:18.652Z,-1.10
2022-12-11T04:52:20.390Z,-1.10
2022-12-11T04:53:22.210Z,-1.10
2022-12-11T04:54:24.083Z,-1.10
2022-12-11T04:55:25.822Z,-1.10
2022-12-11T04:56:27.501Z,-1.20
2022-12-11T04:57:29.163Z,-1.10
2022-12-11T04:58:30.846Z,-1.20
2022-12-11T04:59:33.560Z,-1.20
2022-12-11T05:00:35.262Z,-1.20
2022-12-11T05:01:37.381Z,-1.20
2022-12-11T05:02:41.353Z,-1.10
2022-12-11T05:03:43.226Z,-1.10
2022-12-11T05:04:44.947Z,-1.10
2022-12-11T05:05:53.832Z,-1.10
2022-12-11T05:06:55.501Z,-1.10
2022-12-11T05:07:57.462Z,-1.00
2022-12-11T05:08:59.208Z,-1.00
2022-12-11T05:10:00.958Z,-1.00
2022-12-11T05:11:05.911Z,-1.00
2022-12-11T05:12:07.557Z,-1.00
2022-12-11T05:13:09.297Z,-1.00
2022-12-11T05:14:10.991Z,-1.00
2022-12-11T05:15:12.873Z,-1.00
2022-12-11T05:16:16.750Z,-1.00
2022-12-11T05:17:18.825Z,-1.00
2022-12-11T05:18:20.713Z,-1.00
2022-12-11T05:19:22.372Z,-1.00
2022-12-11T05:20:24.115Z,-1.00
2022-12-11T05:21:30.259Z,-1.00
2022-12-11T05:22:35.098Z,-1.00
2022-12-11T05:23:37.478Z,-1.00
2022-12-11T05:24:39.351Z,-0.90
2022-12-11T05:25:41.016Z,-0.90
2022-12-11T05:26:42.686Z,-0.90
2022-12-11T05:27:44.335Z,-0.90
2022-12-11T05:28:47.041Z,-0.90
2022-12-11T05:29:48.808Z,-0.90
2022-12-11T05:30:56.782Z,-0.90
2022-12-11T05:31:58.875Z,-1.00
2022-12-11T05:33:00.574Z,-0.90
2022-12-11T05:34:02.318Z,-0.90
2022-12-11T05:35:04.249Z,-0.90
2022-12-11T05:36:07.494Z,-0.90
2022-12-11T05:37:09.518Z,-0.90
2022-12-11T05:38:11.265Z,-1.00
2022-12-11T05:39:13.339Z,-1.00
2022-12-11T05:40:15.355Z,-1.00
2022-12-11T05:41:20.310Z,-1.00
2022-12-11T05:42:27.143Z,-1.00
2022-12-11T05:43:33.343Z,-1.10
2022-12-11T05:44:35.147Z,-1.10
2022-12-11T05:45:37.008Z,-1.10
2022-12-11T05:46:39.015Z,-1.10
2022-12-11T05:47:40.737Z,-1.20
2022-12-11T05:48:43.921Z,-1.20
2022-12-11T05:49:45.890Z,-1.20
2022-12-11T05:51:01.151Z,-1.30
2022-12-11T05:52:02.802Z,-1.20
2022-12-11T05:53:05.275Z,-1.30
2022-12-11T05:54:07.116Z,-1.40
2022-12-11T05:55:09.703Z,-1.50
2022-12-11T05:56:13.001Z,-1.50
2022-12-11T05:57:14.760Z,-1.50
2022-12-11T05:58:16.462Z,-1.60
2022-12-11T05:59:19.684Z,-1.60
2022-12-11T06:00:21.315Z,-1.60
2022-12-11T06:01:34.974Z,-1.60
2022-12-11T06:02:36.897Z,-1.70
2022-12-11T06:03:38.845Z,-1.80
2022-12-11T06:04:40.557Z,-1.80
2022-12-11T06:05:42.566Z,-1.90
2022-12-11T06:06:44.364Z,-1.90
2022-12-11T06:07:46.073Z,-1.90
2022-12-11T06:08:54.034Z,-2.00
2022-12-11T06:09:55.747Z,-2.00
2022-12-11T06:10:57.846Z,-2.00
2022-12-11T06:11:59.599Z,-2.00
2022-12-11T06:13:01.746Z,-2.00
2022-12-11T06:14:04.163Z,-2.00
2022-12-11T06:15:06.430Z,-2.10
2022-12-11T06:16:10.115Z,-2.10
2022-12-11T06:17:11.943Z,-2.10
2022-12-11T06:18:13.617Z,-2.00
2022-12-11T06:19:17.917Z,-2.00
2022-12-11T06:20:19.595Z,-2.00
2022-12-11T06:21:34.692Z,-2.00
2022-12-11T06:22:36.348Z,-2.00
2022-12-11T06:23:38.019Z,-2.00
2022-12-11T06:24:39.823Z,-2.00
2022-12-11T06:25:41.574Z,-2.00
2022-12-11T06:26:43.307Z,-2.00
2022-12-11T06:27:45.049Z,-2.00
2022-12-11T06:28:47.469Z,-2.10
2022-12-11T06:29:51.059Z,-2.10
2022-12-11T06:30:52.745Z,-2.10
2022-12-11T06:31:54.810Z,-2.20
2022-12-11T06:32:58.681Z,-2.20
2022-12-11T06:34:00.360Z,-2.20
2022-12-11T06:35:02.003Z,-2.20
2022-12-11T06:36:24.195Z,-2.20
2022-12-11T06:37:25.858Z,-2.20
2022-12-11T06:38:27.708Z,-2.20
2022-12-11T06:39:29.393Z,-2.20
2022-12-11T06:40:31.071Z,-2.20
2022-12-11T06:41:32.768Z,-2.20
2022-12-11T06:42:36.066Z,-2.30
2022-12-11T06:43:40.369Z,-2.30
2022-12-11T06:44:42.229Z,-2.30
2022-12-11T06:45:43.980Z,-2.30
2022-12-11T06:46:45.694Z,-2.30
2022-12-11T06:47:47.390Z,-2.30
2022-12-11T06:48:49.951Z,-2.40
2022-12-11T06:49:51.633Z,-2.40
2022-12-11T06:50:53.277Z,-2.40
2022-12-11T06:51:55.012Z,-2.40
2022-12-11T06:52:57.360Z,-2.40
2022-12-11T06:53:59.318Z,-2.40
2022-12-11T06:55:00.950Z,-2.40
2022-12-11T06:56:11.025Z,-2.40
2022-12-11T06:57:12.733Z,-2.40
2022-12-11T06:58:14.447Z,-2.40
2022-12-11T06:59:16.224Z,-2.40
2022-12-11T07:00:17.959Z,-2.40
2022-12-11T07:01:25.255Z,-2.60
2022-12-11T07:02:27.128Z,-2.50
2022-12-11T07:03:29.242Z,-2.50
2022-12-11T07:04:31.465Z,-2.50
2022-12-11T07:05:33.909Z,-2.50
2022-12-11T07:06:35.612Z,-2.50
2022-12-11T07:07:37.306Z,-2.50
2022-12-11T07:08:39.007Z,-2.50
2022-12-11T07:09:41.116Z,-2.60
2022-12-11T07:10:42.862Z,-2.60
2022-12-11T07:11:44.561Z,-2.60
2022-12-11T07:12:46.299Z,-2.60
2022-12-11T07:13:48.717Z,-2.60
2022-12-11T07:14:50.448Z,-2.60
2022-12-11T07:15:52.140Z,-2.50
2022-12-11T07:16:54.063Z,-2.50
2022-12-11T07:17:55.814Z,-2.50
2022-12-11T07:18:57.467Z,-2.50
2022-12-11T07:19:59.207Z,-2.50
2022-12-11T07:21:01.107Z,-2.40
2022-12-11T07:22:02.771Z,-2.40
2022-12-11T07:23:04.554Z,-2.40
2022-12-11T07:24:06.808Z,-2.40
2022-12-11T07:25:09.274Z,-2.40
2022-12-11T07:26:14.485Z,-2.40
2022-12-11T07:27:16.233Z,-2.40
2022-12-11T07:28:17.956Z,-2.40
2022-12-11T07:29:19.726Z,-2.40
2022-12-11T07:30:21.448Z,-2.40
2022-12-11T07:31:25.017Z,-2.40
2022-12-11T07:32:26.959Z,-2.30
2022-12-11T07:33:28.734Z,-2.30
2022-12-11T07:34:30.423Z,-2.30
2022-12-11T07:35:34.772Z,-2.30
2022-12-11T07:36:36.651Z,-2.30
2022-12-11T07:37:41.176Z,-2.20
2022-12-11T07:38:42.910Z,-2.20
2022-12-11T07:39:44.561Z,-2.20
2022-12-11T07:40:46.219Z,-2.20
2022-12-11T07:41:48.053Z,-2.10
2022-12-11T07:42:49.704Z,-2.10
2022-12-11T07:43:51.383Z,-2.10
2022-12-11T07:44:53.290Z,-2.10
2022-12-11T07:45:55.322Z,-2.00
2022-12-11T07:46:58.456Z,-2.00
2022-12-11T07:48:00.167Z,-2.00
2022-12-11T07:49:02.910Z,-2.00
2022-12-11T07:50:04.958Z,-2.00
2022-12-11T07:51:15.157Z,-2.00
2022-12-11T07:52:16.931Z,-2.00
2022-12-11T07:53:18.668Z,-2.00
2022-12-11T07:54:21.063Z,-2.00
2022-12-11T07:55:22.772Z,-2.00
2022-12-11T07:56:24.831Z,-2.00
2022-12-11T07:57:27.572Z,-2.00
2022-12-11T07:58:29.778Z,-2.10
2022-12-11T07:59:31.536Z,-2.00
2022-12-11T08:00:33.231Z,-2.00
2022-12-11T08:01:36.808Z,-2.00
2022-12-11T08:02:38.608Z,-2.00
2022-12-11T08:03:40.672Z,-2.00
2022-12-11T08:04:42.435Z,-1.90
2022-12-11T08:05:51.269Z,-1.90
2022-12-11T08:06:53.039Z,-1.90
2022-12-11T08:07:54.913Z,-1.80
2022-12-11T08:08:57.808Z,-1.80
2022-12-11T08:09:59.479Z,-1.80
2022-12-11T08:11:02.300Z,-1.80
2022-12-11T08:12:04.195Z,-1.80
2022-12-11T08:13:05.867Z,-1.80
2022-12-11T08:14:08.779Z,-1.80
2022-12-11T08:15:11.057Z,-1.80
2022-12-11T08:16:15.306Z,-1.80
2022-12-11T08:17:17.101Z,-1.80
2022-12-11T08:18:18.829Z,-1.80
2022-12-11T08:19:20.520Z,-1.70
2022-12-11T08:20:22.243Z,-1.70
2022-12-11T08:21:26.205Z,-1.70
2022-12-11T08:22:27.920Z,-1.70
2022-12-11T08:23:29.583Z,-1.60
2022-12-11T08:24:31.406Z,-1.60
2022-12-11T08:25:33.116Z,-1.50
2022-12-11T08:26:34.874Z,-1.50
2022-12-11T08:27:36.524Z,-1.40
2022-12-11T08:28:38.414Z,-1.40
2022-12-11T08:29:40.263Z,-1.30
2022-12-11T08:30:42.040Z,-1.30
2022-12-11T08:31:43.875Z,-1.30
2022-12-11T08:32:45.578Z,-1.30
2022-12-11T08:33:48.382Z,-1.20
2022-12-11T08:34:51.638Z,-1.20
2022-12-11T08:35:53.375Z,-1.10
2022-12-11T08:36:55.028Z,-1.10
2022-12-11T08:37:56.692Z,-1.10
2022-12-11T08:38:58.718Z,-1.00
2022-12-11T08:40:00.523Z,-1.00
2022-12-11T08:41:22.699Z,-0.90
2022-12-11T08:42:24.501Z,-0.90
2022-12-11T08:43:26.177Z,-0.80
2022-12-11T08:44:28.294Z,-0.80
2022-12-11T08:45:30.129Z,-0.80
2022-12-11T08:46:32.672Z,-0.80
2022-12-11T08:47:34.565Z,-0.70
2022-12-11T08:48:38.255Z,-0.70
2022-12-11T08:49:39.995Z,-0.70
2022-12-11T08:50:42.543Z,-0.70
2022-12-11T08:51:44.190Z,-0.60
2022-12-11T08:52:45.904Z,-0.60
2022-12-11T08:53:47.615Z,-0.60
2022-12-11T08:54:49.403Z,-0.60
2022-12-11T08:55:51.075Z,-0.60
2022-12-11T08:56:57.805Z,-0.60
2022-12-11T08:58:00.364Z,-0.60
2022-12-11T08:59:02.823Z,-0.60
2022-12-11T09:00:05.055Z,-0.60
2022-12-11T09:01:24.725Z,-0.60
2022-12-11T09:02:26.782Z,-0.60
2022-12-11T09:03:28.679Z,-0.60
2022-12-11T09:04:30.407Z,-0.50
2022-12-11T09:05:32.519Z,-0.60
2022-12-11T09:06:34.431Z,-0.60
2022-12-11T09:07:38.658Z,-0.60
2022-12-11T09:08:41.085Z,-0.60
2022-12-11T09:09:42.841Z,-0.60
2022-12-11T09:10:44.781Z,-0.60
2022-12-11T09:11:46.521Z,-0.60
2022-12-11T09:12:48.255Z,-0.60
2022-12-11T09:13:50.075Z,-0.60
2022-12-11T09:14:51.780Z,-0.50
2022-12-11T09:15:53.501Z,-0.50
2022-12-11T09:16:55.701Z,-0.50
2022-12-11T09:17:57.411Z,-0.50
2022-12-11T09:19:00.316Z,-0.50
2022-12-11T09:20:02.258Z,-0.50
2022-12-11T09:21:06.490Z,-0.40
2022-12-11T09:22:11.154Z,-0.40
2022-12-11T09:23:12.966Z,-0.40
2022-12-11T09:24:15.570Z,-0.40
2022-12-11T09:25:17.379Z,-0.40
2022-12-11T09:26:20.123Z,-0.40
2022-12-11T09:27:22.180Z,-0.40
2022-12-11T09:28:24.432Z,-0.40
2022-12-11T09:29:26.099Z,-0.40
2022-12-11T09:30:27.747Z,-0.40
2022-12-11T09:31:31.901Z,-0.30
2022-12-11T09:32:33.691Z,-0.30
2022-12-11T09:33:35.605Z,-0.30
2022-12-11T09:34:37.899Z,-0.30
2022-12-11T09:35:39.648Z,-0.30
2022-12-11T09:36:44.280Z,-0.30
2022-12-11T09:37:46.247Z,-0.20
2022-12-11T09:38:48.072Z,-0.30
2022-12-11T09:39:49.813Z,-0.20
2022-12-11T09:40:51.972Z,-0.20
2022-12-11T09:42:17.496Z,-0.30
2022-12-11T09:43:42.810Z,-0.20
2022-12-11T09:45:00.642Z,-0.30
2022-12-11T09:46:07.095Z,-0.30
2022-12-11T09:47:21.981Z,-0.30
2022-12-11T09:48:26.032Z,-0.30
2022-12-11T09:49:43.497Z,-0.30
2022-12-11T09:50:48.260Z,-0.30
2022-12-11T09:52:13.797Z,-0.30
2022-12-11T09:53:21.699Z,-0.30
2022-12-11T09:54:23.448Z,-0.30
2022-12-11T09:55:30.318Z,-0.30
2022-12-11T09:56:32.027Z,-0.30
2022-12-11T09:57:57.286Z,-0.30
2022-12-11T09:59:36.267Z,-0.30
2022-12-11T10:01:22.769Z,-0.20
2022-12-11T10:02:49.522Z,-0.20
2022-12-11T10:04:00.798Z,-0.20
2022-12-11T10:05:30.582Z,-0.10
2022-12-11T10:06:48.487Z,-0.10
2022-12-11T10:08:08.658Z,-0.10
2022-12-11T10:09:59.502Z,0.00
2022-12-11T10:11:29.048Z,0.00
2022-12-11T10:13:05.172Z,0.00
2022-12-11T10:14:14.398Z,0.00
2022-12-11T10:15:24.912Z,0.10
2022-12-11T10:16:43.990Z,0.10
2022-12-11T10:17:46.388Z,0.10
2022-12-11T10:18:49.169Z,0.10
2022-12-11T10:19:51.480Z,0.10
2022-12-11T10:20:54.817Z,0.20
2022-12-11T10:21:57.800Z,0.20
2022-12-11T10:22:59.738Z,0.20
2022-12-11T10:24:04.705Z,0.20
2022-12-11T10:25:12.386Z,0.20
2022-12-11T10:26:20.314Z,0.20
2022-12-11T10:27:26.271Z,0.30
2022-12-11T10:28:28.582Z,0.30
2022-12-11T10:29:30.374Z,0.30
2022-12-11T10:30:38.030Z,0.40
2022-12-11T10:31:58.409Z,0.30
2022-12-11T10:33:21.497Z,0.40
2022-12-11T10:34:36.576Z,0.40
2022-12-11T10:35:50.049Z,0.30
2022-12-11T10:37:00.177Z,0.30
2022-12-11T10:38:11.240Z,0.30
2022-12-11T10:39:15.328Z,0.30
2022-12-11T10:40:18.632Z,0.30
2022-12-11T10:41:37.985Z,0.30
2022-12-11T10:42:44.177Z,0.30
2022-12-11T10:43:52.672Z,0.40
2022-12-11T10:45:03.465Z,0.40
2022-12-11T10:46:06.978Z,0.40
2022-12-11T10:47:14.221Z,0.40
2022-12-11T10:48:15.939Z,0.40
2022-12-11T10:49:26.416Z,0.40
2022-12-11T10:50:28.131Z,0.40
2022-12-11T10:51:32.541Z,0.40
2022-12-11T10:52:38.391Z,0.40
2022-12-11T10:53:40.974Z,0.40
2022-12-11T10:54:47.037Z,0.40
2022-12-11T10:55:49.578Z,0.40
2022-12-11T10:56:51.702Z,0.40
2022-12-11T10:57:59.627Z,0.40
2022-12-11T10:59:01.726Z,0.40
2022-12-11T11:00:06.495Z,0.40
2022-12-11T11:01:16.021Z,0.40
2022-12-11T11:02:47.843Z,0.40
2022-12-11T11:03:55.140Z,0.40
2022-12-11T11:04:59.214Z,0.40
2022-12-11T11:06:17.335Z,0.40
2022-12-11T11:07:26.287Z,0.40
2022-12-11T11:08:28.203Z,0.50
2022-12-11T11:09:31.738Z,0.40
2022-12-11T11:10:33.415Z,0.40
2022-12-11T11:11:38.186Z,0.40
2022-12-11T11:12:48.272Z,0.40
2022-12-11T11:13:50.095Z,0.40
2022-12-11T11:15:10.428Z,0.40
2022-12-11T11:16:15.798Z,0.40
2022-12-11T11:17:17.789Z,0.40
2022-12-11T11:18:28.107Z,0.40
2022-12-11T11:19:33.305Z,0.40
2022-12-11T11:20:35.695Z,0.40
2022-12-11T11:21:37.469Z,0.50
2022-12-11T11:22:44.836Z,0.50
2022-12-11T11:23:51.893Z,0.50
2022-12-11T11:24:57.960Z,0.50
2022-12-11T11:26:01.812Z,0.50
2022-12-11T11:27:20.397Z,0.60
2022-12-11T11:28:37.630Z,0.60
2022-12-11T11:29:39.439Z,0.60
2022-12-11T11:30:42.448Z,0.60
2022-12-11T11:31:44.206Z,0.60
2022-12-11T11:32:46.357Z,0.50
2022-12-11T11:33:51.033Z,0.50
2022-12-11T11:34:52.739Z,0.50
2022-12-11T11:36:01.516Z,0.50
2022-12-11T11:37:05.930Z,0.50
2022-12-11T11:38:18.876Z,0.50
2022-12-11T11:39:32.602Z,0.40
2022-12-11T11:40:49.058Z,0.40
2022-12-11T11:42:01.151Z,0.50
2022-12-11T11:43:28.974Z,0.50
2022-12-11T11:44:42.777Z,0.40
2022-12-11T11:45:47.531Z,0.40
2022-12-11T11:47:27.884Z,0.40
2022-12-11T11:48:48.337Z,0.40
2022-12-11T11:49:59.973Z,0.40
2022-12-11T11:51:13.665Z,0.40
2022-12-11T11:52:30.751Z,0.50
2022-12-11T11:53:37.921Z,0.40
2022-12-11T11:55:02.113Z,0.40
2022-12-11T11:56:17.749Z,0.40
2022-12-11T11:57:37.348Z,0.50
2022-12-11T11:58:56.354Z,0.50
2022-12-11T12:00:17.565Z,0.50
2022-12-11T12:01:20.716Z,0.50
2022-12-11T12:02:22.517Z,0.50
2022-12-11T12:03:25.598Z,0.60
2022-12-11T12:04:33.720Z,0.60
2022-12-11T12:05:52.919Z,0.60
2022-12-11T12:07:24.263Z,0.60
2022-12-11T12:08:57.883Z,0.50
2022-12-11T12:10:33.337Z,0.50
2022-12-11T12:11:54.930Z,0.50
2022-12-11T12:15:05.699Z,0.60
2022-12-11T12:16:52.111Z,0.60
2022-12-11T12:18:02.725Z,0.60
2022-12-11T12:19:34.486Z,0.70
2022-12-11T12:20:43.775Z,0.70
2022-12-11T12:21:50.643Z,0.70
2022-12-11T12:23:25.865Z,0.70
2022-12-11T12:25:02.801Z,0.80
2022-12-11T12:26:12.459Z,0.60
2022-12-11T12:27:51.047Z,0.70
2022-12-11T12:29:29.624Z,0.70
2022-12-11T12:30:38.346Z,0.70
2022-12-11T12:32:07.708Z,0.70
2022-12-11T12:33:45.910Z,0.70
2022-12-11T12:35:09.173Z,0.80
2022-12-11T12:36:26.024Z,0.80
2022-12-11T12:37:43.763Z,0.80
2022-12-11T12:39:27.123Z,0.80
2022-12-11T12:41:03.280Z,0.80
2022-12-11T12:42:27.524Z,0.80
2022-12-11T12:43:44.151Z,0.80
2022-12-11T12:45:03.702Z,0.80
2022-12-11T12:46:10.969Z,0.80
2022-12-11T12:47:17.491Z,0.80
2022-12-11T12:48:20.935Z,0.70
2022-12-11T12:49:44.874Z,0.70
2022-12-11T12:50:49.336Z,0.70
2022-12-11T12:51:51.809Z,0.70
2022-12-11T12:52:55.191Z,0.70
2022-12-11T12:54:00.204Z,0.60
2022-12-11T12:55:24.191Z,0.60
2022-12-11T12:56:29.142Z,0.70
2022-12-11T12:57:32.847Z,0.70
2022-12-11T12:58:34.778Z,0.70
2022-12-11T12:59:36.584Z,0.70
2022-12-11T13:00:43.726Z,0.70
2022-12-11T13:01:49.542Z,0.70
2022-12-11T13:02:53.700Z,0.70
2022-12-11T13:03:57.767Z,0.70
2022-12-11T13:05:05.082Z,0.70
2022-12-11T13:06:09.778Z,0.70
2022-12-11T13:07:29.983Z,0.70
2022-12-11T13:08:42.214Z,0.70
2022-12-11T13:09:44.138Z,0.70
2022-12-11T13:10:45.837Z,0.70
2022-12-11T13:11:53.496Z,0.70
2022-12-11T13:12:56.037Z,0.70
2022-12-11T13:14:15.984Z,0.70
2022-12-11T13:15:37.147Z,0.80
2022-12-11T13:16:41.955Z,0.70
2022-12-11T13:17:43.677Z,0.70
2022-12-11T13:18:48.081Z,0.70
2022-12-11T13:19:57.433Z,0.70
2022-12-11T13:20:59.359Z,0.70
2022-12-11T13:22:20.444Z,0.70
2022-12-11T13:23:33.793Z,0.70
2022-12-11T13:24:47.530Z,0.70
2022-12-11T13:25:55.288Z,0.70
2022-12-11T13:27:08.119Z,0.70
2022-12-11T13:28:32.175Z,0.70
2022-12-11T13:29:42.040Z,0.70
2022-12-11T13:30:43.740Z,0.60
2022-12-11T13:31:56.062Z,0.60
2022-12-11T13:33:15.758Z,0.60
2022-12-11T13:34:21.398Z,0.60
2022-12-11T13:35:23.363Z,0.60
2022-12-11T13:36:32.178Z,0.60
2022-12-11T13:37:39.761Z,0.60
2022-12-11T13:38:48.703Z,0.60
2022-12-11T13:39:51.369Z,0.60
2022-12-11T13:40:56.333Z,0.60
2022-12-11T13:42:03.007Z,0.60
2022-12-11T13:43:20.315Z,0.60
2022-12-11T13:44:26.711Z,0.60
2022-12-11T13:45:50.269Z,0.60
2022-12-11T13:46:55.254Z,0.50
2022-12-11T13:47:58.462Z,0.50
2022-12-11T13:49:02.993Z,0.50
2022-12-11T13:50:37.082Z,0.50
2022-12-11T13:51:38.994Z,0.40
2022-12-11T13:52:40.738Z,0.40
2022-12-11T13:53:42.825Z,0.30
2022-12-11T13:54:50.586Z,0.30
2022-12-11T13:55:58.404Z,0.30
2022-12-11T13:57:04.479Z,0.20
2022-12-11T13:58:19.471Z,0.20
2022-12-11T13:59:26.309Z,0.20
2022-12-11T14:00:32.120Z,0.20
2022-12-11T14:01:34.934Z,0.20
2022-12-11T14:02:40.536Z,0.10
2022-12-11T14:03:57.920Z,0.10
2022-12-11T14:05:06.285Z,0.10
2022-12-11T14:06:18.382Z,0.10
2022-12-11T14:07:26.857Z,0.20
2022-12-11T14:08:35.452Z,0.10
2022-12-11T14:09:45.266Z,0.10
2022-12-11T14:10:54.495Z,0.10
2022-12-11T14:11:57.608Z,0.00
2022-12-11T14:12:59.417Z,0.00
2022-12-11T14:14:03.633Z,0.00
2022-12-11T14:15:05.967Z,0.00
2022-12-11T14:16:08.093Z,0.00
2022-12-11T14:17:23.120Z,0.00
2022-12-11T14:18:28.898Z,0.00
2022-12-11T14:19:30.865Z,0.00
2022-12-11T14:20:34.222Z,0.00
2022-12-11T14:21:36.232Z,-0.10
2022-12-11T14:22:37.942Z,-0.10
2022-12-11T14:23:39.668Z,-0.10
2022-12-11T14:24:49.507Z,-0.10
2022-12-11T14:26:17.116Z,-0.10
2022-12-11T14:27:19.992Z,-0.10